Time;durP1;ratioP1;P1;durP2;ratioP2;P2;SDS_P1;SDS_P2;PMS_P1;PMS_P2;Temp;Humidity;BMP_temperature;BMP_pressure;BME280_temperature;BME280_humidity;BME280_pressure;Samples;Min_cycle;Max_cycle;Signal;HPM_P1;HPM_P2
2022/05/01 00:00:15;;;;;;;16.25;11.93;;;;;;;9.30;71.18;102400.69;7386560;19;20018;-60
2022/05/01 00:02:44;;;;;;;17.58;12.18;;;;;;;9.43;70.63;102392.69;7387304;19;20022;-58
2022/05/01 00:05:12;;;;;;;17.35;12.45;;;;;;;9.24;71.38;102395.56;7386901;19;20413;-60
2022/05/01 00:07:41;;;;;;;18.35;12.07;;;;;;;9.27;71.11;102392.00;7387936;19;20025;-59
2022/05/01 00:10:12;;;;;;;18.30;12.18;;;;;;;9.15;71.90;102385.19;7385720;19;20023;-60
2022/05/01 00:12:42;;;;;;;24.98;12.75;;;;;;;9.31;71.25;102380.63;7387476;19;20011;-58
2022/05/01 00:15:13;;;;;;;19.60;12.73;;;;;;;9.18;71.78;102377.31;7385814;19;20019;-58
2022/05/01 00:17:42;;;;;;;19.45;12.63;;;;;;;9.22;71.89;102379.00;7388062;19;20019;-56
2022/05/01 00:20:14;;;;;;;19.15;12.98;;;;;;;9.15;72.06;102375.59;7387640;19;20010;-58
2022/05/01 00:22:43;;;;;;;18.83;12.82;;;;;;;9.34;71.72;102372.72;7387069;19;20014;-55
2022/05/01 00:25:13;;;;;;;17.77;12.95;;;;;;;9.20;71.36;102380.78;7385376;19;20018;-60
2022/05/01 00:27:42;;;;;;;20.15;12.77;;;;;;;9.16;71.72;102379.94;7387466;19;20011;-58
2022/05/01 00:30:14;;;;;;;16.40;12.13;;;;;;;9.04;72.40;102374.88;7385078;19;20010;-58
2022/05/01 00:38:06;;;;;;;18.38;12.63;;;;;;;9.20;72.63;102377.28;7395552;19;20017;-59
2022/05/01 00:40:35;;;;;;;20.30;13.95;;;;;;;9.22;71.79;102371.16;7394834;19;20344;-57
2022/05/01 00:43:04;;;;;;;18.67;13.77;;;;;;;9.36;71.30;102376.19;7393271;19;20018;-59
2022/05/01 00:45:36;;;;;;;19.83;13.00;;;;;;;9.33;72.25;102373.63;7395498;19;20074;-59
2022/05/01 00:48:06;;;;;;;19.03;14.00;;;;;;;9.28;72.12;102378.91;7395359;19;20018;-59
2022/05/01 00:50:36;;;;;;;19.83;13.55;;;;;;;9.48;70.65;102377.78;7394322;19;20018;-58
2022/05/01 00:53:07;;;;;;;17.25;13.60;;;;;;;9.46;70.70;102374.31;7396628;19;20018;-55
2022/05/01 00:55:36;;;;;;;19.83;13.00;;;;;;;9.34;71.91;102375.34;7398007;19;20093;-58
2022/05/01 00:58:08;;;;;;;21.13;14.20;;;;;;;9.13;72.80;102373.91;7396916;19;20108;-57
2022/05/01 01:00:39;;;;;;;16.88;13.02;;;;;;;9.27;72.04;102363.22;7399475;19;20018;-59
2022/05/01 01:03:08;;;;;;;17.83;12.75;;;;;;;9.16;72.78;102369.47;7396957;19;20029;-58
2022/05/01 01:05:37;;;;;;;19.52;13.85;;;;;;;9.07;72.91;102372.22;7398933;19;20017;-59
2022/05/01 01:08:07;;;;;;;18.60;14.15;;;;;;;9.20;72.64;102369.44;7395962;19;20056;-56
2022/05/01 01:10:36;;;;;;;18.05;13.45;;;;;;;9.16;72.63;102361.63;7394279;19;20022;-57
2022/05/01 01:13:04;;;;;;;18.75;13.38;;;;;;;9.10;72.92;102371.34;7393563;19;20445;-58
2022/05/01 01:15:35;;;;;;;18.15;13.63;;;;;;;8.83;73.91;102363.78;7394777;19;20022;-60
2022/05/01 01:18:07;;;;;;;18.83;14.07;;;;;;;9.02;73.89;102367.94;7393463;19;20483;-57
2022/05/01 01:20:42;;;;;;;20.10;14.07;;;;;;;9.06;73.47;102361.78;7392007;19;20114;-57
2022/05/01 01:23:11;;;;;;;21.67;13.80;;;;;;;9.12;73.08;102361.72;7390534;19;20399;-60
2022/05/01 01:25:40;;;;;;;20.75;14.05;;;;;;;9.09;73.11;102367.84;7393675;19;20014;-58
2022/05/01 01:28:10;;;;;;;19.42;14.48;;;;;;;8.92;74.00;102365.44;7393991;19;20021;-57
2022/05/01 01:33:21;;;;;;;21.50;14.43;;;;;;;8.97;73.79;102357.56;7392931;19;20018;-59
2022/05/01 01:35:53;;;;;;;20.67;14.55;;;;;;;8.87;74.24;102351.56;7393465;19;20010;-59
2022/05/01 01:38:22;;;;;;;19.77;14.55;;;;;;;9.05;73.56;102362.66;7393700;19;20021;-59
2022/05/01 01:40:54;;;;;;;21.77;14.80;;;;;;;9.05;73.40;102363.53;7392156;19;20022;-58
2022/05/01 01:43:27;;;;;;;21.33;13.97;;;;;;;9.00;73.67;102366.22;7391194;19;20045;-60
2022/05/01 01:45:57;;;;;;;23.02;15.43;;;;;;;9.07;73.30;102364.38;7392310;19;20531;-58
2022/05/01 01:48:26;;;;;;;22.42;14.40;;;;;;;8.91;74.15;102361.09;7391171;19;20024;-57
2022/05/01 01:51:02;;;;;;;21.40;14.48;;;;;;;8.92;74.10;102364.56;7391239;19;20014;-61
2022/05/01 01:53:33;;;;;;;21.52;15.23;;;;;;;8.93;73.94;102358.47;7391932;19;20022;-59
2022/05/01 01:56:02;;;;;;;21.55;14.93;;;;;;;8.78;74.56;102363.00;7392730;19;20007;-56
2022/05/01 01:58:33;;;;;;;20.17;14.55;;;;;;;8.77;74.78;102350.81;7392339;19;20015;-59
2022/05/01 02:01:02;;;;;;;20.75;15.00;;;;;;;8.64;75.11;102352.69;7390883;19;20352;-59
2022/05/01 02:03:30;;;;;;;21.38;14.65;;;;;;;8.68;75.39;102347.44;7391272;19;20021;-58
2022/05/01 02:06:04;;;;;;;22.15;14.65;;;;;;;8.70;75.03;102351.78;7392642;19;20021;-59
2022/05/01 02:08:34;;;;;;;23.38;15.55;;;;;;;8.53;75.63;102345.88;7392066;19;20070;-59
2022/05/01 02:11:04;;;;;;;21.80;15.50;;;;;;;8.68;75.33;102347.44;7392304;19;20022;-58
2022/05/01 02:13:33;;;;;;;20.63;15.88;;;;;;;8.81;74.65;102347.28;7392045;19;20022;-59
2022/05/01 02:16:02;;;;;;;21.08;15.23;;;;;;;8.70;74.61;102346.53;7392709;19;20003;-60
2022/05/01 02:18:31;;;;;;;23.17;15.55;;;;;;;8.62;75.50;102353.59;7392525;19;20014;-59
2022/05/01 02:23:44;;;;;;;21.48;15.18;;;;;;;8.74;75.35;102347.34;7390764;19;20018;-60
2022/05/01 02:26:13;;;;;;;24.63;15.27;;;;;;;8.59;75.79;102346.66;7391817;19;20014;-57
2022/05/01 02:28:42;;;;;;;20.65;15.73;;;;;;;8.62;75.70;102343.16;7391516;19;20025;-59
2022/05/01 02:31:11;;;;;;;23.33;15.45;;;;;;;8.73;75.19;102337.81;7391758;19;20476;-58
2022/05/01 02:33:40;;;;;;;21.73;15.05;;;;;;;8.83;75.59;102342.03;7390630;19;20499;-58
2022/05/01 02:36:12;;;;;;;24.52;15.77;;;;;;;8.83;74.76;102334.19;7390070;19;20011;-59
2022/05/01 02:38:41;;;;;;;21.83;15.20;;;;;;;8.76;74.77;102341.22;7391514;19;20472;-59
2022/05/01 02:41:10;;;;;;;21.83;16.70;;;;;;;8.70;75.52;102345.66;7390649;19;20015;-60
2022/05/01 02:43:39;;;;;;;21.60;15.70;;;;;;;8.69;75.36;102339.56;7390118;19;20014;-58
2022/05/01 02:46:08;;;;;;;21.23;15.32;;;;;;;8.70;75.44;102338.69;7391760;19;20014;-60
2022/05/01 02:48:36;;;;;;;25.42;15.50;;;;;;;8.73;75.16;102337.81;7391340;19;20018;-58
2022/05/01 02:51:06;;;;;;;23.80;15.70;;;;;;;8.61;75.66;102338.78;7390080;19;20014;-59
2022/05/01 02:53:38;;;;;;;25.67;16.17;;;;;;;8.43;75.87;102345.94;7390498;19;20048;-58
2022/05/01 02:56:07;;;;;;;23.03;15.83;;;;;;;8.51;76.58;102340.66;7390757;19;20018;-57
2022/05/01 02:58:36;;;;;;;22.45;16.02;;;;;;;8.36;76.34;102327.75;7389326;19;20030;-57
2022/05/01 03:01:04;;;;;;;20.33;15.07;;;;;;;8.59;75.99;102328.34;7390498;19;20021;-57
2022/05/01 03:03:33;;;;;;;21.08;15.98;;;;;;;8.47;75.80;102331.13;7389068;19;20034;-58
2022/05/01 03:06:02;;;;;;;22.58;15.77;;;;;;;8.45;76.67;102325.03;7390260;19;20018;-59
2022/05/01 03:08:31;;;;;;;21.58;16.02;;;;;;;8.56;76.12;102328.41;7391179;19;20360;-59
2022/05/01 03:11:03;;;;;;;23.58;15.23;;;;;;;8.54;75.69;102330.19;7389422;19;20349;-59
2022/05/01 03:13:32;;;;;;;20.55;15.70;;;;;;;8.56;76.17;102328.41;7389923;19;20024;-59
2022/05/01 03:16:01;;;;;;;19.52;14.88;;;;;;;8.38;76.61;102320.75;7391029;19;20025;-60
2022/05/01 03:23:53;;;;;;;20.85;15.50;;;;;;;8.27;77.60;102318.25;7388399;19;20361;-59
2022/05/01 03:26:25;;;;;;;24.27;15.98;;;;;;;8.31;77.30;102319.97;7390908;19;20494;-58
2022/05/01 03:28:54;;;;;;;21.83;15.50;;;;;;;8.35;77.22;102315.56;7389875;19;20472;-57
2022/05/01 03:31:23;;;;;;;21.85;15.90;;;;;;;8.46;76.73;102317.19;7389262;19;20018;-59
2022/05/01 03:33:52;;;;;;;21.70;15.57;;;;;;;8.43;76.71;102317.19;7388889;19;20010;-58
2022/05/01 03:36:20;;;;;;;22.88;15.73;;;;;;;8.36;77.62;102317.28;7389737;19;20320;-56
2022/05/01 03:38:50;;;;;;;19.10;14.63;;;;;;;8.46;77.08;102313.72;7389428;19;20026;-60
2022/05/01 03:41:19;;;;;;;22.73;15.45;;;;;;;8.41;77.01;102313.75;7389207;19;20026;-59
2022/05/01 03:43:51;;;;;;;22.75;16.42;;;;;;;8.45;76.56;102312.88;7388291;19;20070;-60
2022/05/01 03:46:20;;;;;;;22.07;16.07;;;;;;;8.25;77.90;102313.06;7389667;19;20014;-57
2022/05/01 03:48:49;;;;;;;26.00;15.80;;;;;;;8.49;76.75;102316.28;7389146;19;20051;-58
2022/05/01 03:51:18;;;;;;;24.25;15.65;;;;;;;8.44;76.25;102321.56;7386630;19;20018;-59
2022/05/01 03:53:47;;;;;;;23.35;15.32;;;;;;;8.05;77.86;102315.88;7389296;19;20018;-59
2022/05/01 03:56:16;;;;;;;20.50;15.23;;;;;;;8.18;78.21;102316.59;7388853;19;20142;-59
2022/05/01 03:58:45;;;;;;;21.30;16.15;;;;;;;8.21;77.80;102327.03;7389161;19;20021;-58
2022/05/01 04:01:16;;;;;;;21.45;16.33;;;;;;;8.18;78.11;102323.56;7388347;19;20018;-58
2022/05/01 04:03:46;;;;;;;21.65;15.90;;;;;;;8.17;78.05;102324.44;7388684;19;20118;-58
2022/05/01 04:06:15;;;;;;;21.23;15.82;;;;;;;8.05;78.64;102321.09;7390237;19;20011;-57
2022/05/01 04:08:43;;;;;;;23.92;16.25;;;;;;;7.94;78.85;102321.16;7389034;19;20019;-59
2022/05/01 04:11:13;;;;;;;22.83;15.88;;;;;;;7.89;79.35;102325.56;7389112;19;20418;-59
2022/05/01 04:13:43;;;;;;;23.77;16.42;;;;;;;7.93;79.04;102326.41;7388818;19;20088;-59
2022/05/01 04:16:12;;;;;;;25.92;15.93;;;;;;;8.05;79.21;102321.09;7389583;19;20014;-60
2022/05/01 04:18:43;;;;;;;22.05;15.63;;;;;;;7.88;79.35;102323.84;7389524;19;20022;-60
2022/05/01 04:21:13;;;;;;;24.30;16.25;;;;;;;7.94;79.64;102328.16;7388597;19;20015;-58
2022/05/01 04:23:42;;;;;;;23.63;15.77;;;;;;;8.03;78.98;102330.66;7388453;19;20022;-59
2022/05/01 04:26:11;;;;;;;21.42;15.50;;;;;;;8.06;79.04;102327.16;7389212;19;20018;-59
2022/05/01 04:29:36;;;;;;;21.17;15.30;;;;;;;8.06;78.83;102319.31;7388985;19;20558;-59
2022/05/01 04:31:29;;;;;;;20.88;15.65;;;;;;;8.05;79.30;102323.69;7389070;19;20018;-60
2022/05/01 04:34:00;;;;;;;24.92;15.77;;;;;;;8.14;78.84;102322.75;7387599;19;20022;-59
2022/05/01 04:36:29;;;;;;;24.75;16.75;;;;;;;8.12;78.66;102317.53;7388510;19;20089;-60
2022/05/01 04:38:58;;;;;;;21.30;15.63;;;;;;;8.18;78.49;102329.66;7388948;19;20014;-58
2022/05/01 04:41:28;;;;;;;23.77;16.60;;;;;;;8.08;78.80;102328.00;7388196;19;20478;-57
2022/05/01 04:43:57;;;;;;;24.08;15.68;;;;;;;8.09;78.85;102338.41;7386980;19;20018;-60
2022/05/01 04:46:26;;;;;;;23.17;16.15;;;;;;;8.15;78.82;102321.84;7388869;19;20011;-60
2022/05/01 04:48:56;;;;;;;27.45;16.15;;;;;;;8.07;78.56;102329.75;7388742;19;20372;-58
2022/05/01 04:51:27;;;;;;;21.58;16.15;;;;;;;8.06;78.93;102327.16;7388265;19;20019;-60
2022/05/01 04:53:57;;;;;;;23.00;15.88;;;;;;;8.07;79.15;102326.28;7388416;19;20022;-58
2022/05/01 04:59:08;;;;;;;24.95;16.00;;;;;;;7.96;79.59;102331.59;7387674;19;20515;-59
2022/05/01 05:01:38;;;;;;;23.40;16.20;;;;;;;8.02;79.14;102333.28;7389185;19;20038;-59
2022/05/01 05:04:07;;;;;;;20.98;15.93;;;;;;;8.11;78.47;102331.47;7389912;19;20037;-58
2022/05/01 05:06:38;;;;;;;22.65;16.55;;;;;;;7.99;79.27;102334.16;7390418;19;20029;-60
2022/05/01 05:11:48;;;;;;;26.13;16.30;;;;;;;8.00;79.56;102340.28;7390865;19;20476;-59
2022/05/01 05:14:17;;;;;;;25.90;16.67;;;;;;;8.24;78.54;102339.19;7387713;19;20516;-58
2022/05/01 05:16:46;;;;;;;22.88;15.82;;;;;;;7.99;79.75;102347.22;7387608;19;20441;-58
2022/05/01 05:19:15;;;;;;;22.88;16.52;;;;;;;8.04;79.35;102347.19;7387701;19;20150;-55
2022/05/01 05:21:47;;;;;;;24.65;16.95;;;;;;;8.07;79.23;102347.19;7391775;19;20023;-60
2022/05/01 05:24:15;;;;;;;25.95;17.02;;;;;;;8.02;79.62;102349.81;7393854;19;20014;-58
2022/05/01 05:26:44;;;;;;;22.50;16.67;;;;;;;8.11;79.28;102351.50;7395826;19;20102;-54
2022/05/01 05:29:13;;;;;;;21.50;16.02;;;;;;;8.26;78.61;102345.25;7393967;19;20006;-60
2022/05/01 05:31:42;;;;;;;21.08;16.15;;;;;;;8.09;80.54;102342.78;7394633;19;20118;-57
2022/05/01 05:34:11;;;;;;;21.50;15.93;;;;;;;8.21;78.64;102347.03;7392644;19;20021;-61
2022/05/01 05:36:40;;;;;;;22.75;16.90;;;;;;;8.15;79.04;102347.94;7395119;19;20014;-59
2022/05/01 05:39:11;;;;;;;24.25;15.63;;;;;;;8.14;79.45;102359.28;7393836;19;20475;-60
2022/05/01 05:41:40;;;;;;;25.27;16.48;;;;;;;8.10;79.12;102360.19;7394631;19;20019;-60
2022/05/01 05:44:09;;;;;;;24.77;16.58;;;;;;;8.26;78.58;102351.31;7392506;19;20033;-59
2022/05/01 05:46:39;;;;;;;23.23;16.20;;;;;;;8.26;78.68;102359.16;7393858;19;20042;-57
2022/05/01 05:49:08;;;;;;;22.67;15.57;;;;;;;8.27;78.50;102352.22;7394384;19;20021;-53
2022/05/01 05:51:37;;;;;;;25.17;16.13;;;;;;;8.21;78.92;102350.53;7394532;19;20020;-58
2022/05/01 05:54:06;;;;;;;21.20;16.08;;;;;;;8.20;79.14;102350.53;7393893;19;20444;-54
2022/05/01 05:56:39;;;;;;;23.27;16.45;;;;;;;8.46;78.11;102358.13;7394540;19;20014;-53
2022/05/01 05:59:08;;;;;;;23.00;16.60;;;;;;;8.37;78.34;102359.06;7393923;19;20017;-54
2022/05/01 06:01:37;;;;;;;22.67;16.20;;;;;;;8.44;78.15;102366.00;7393121;19;20018;-59
2022/05/01 06:04:06;;;;;;;24.55;16.80;;;;;;;8.58;77.55;102358.00;7391545;19;20383;-59
2022/05/01 06:06:36;;;;;;;22.38;16.08;;;;;;;8.80;76.69;102370.81;7391721;19;20011;-55
2022/05/01 06:09:05;;;;;;;23.60;17.10;;;;;;;8.80;76.78;102358.63;7392958;19;20027;-59
2022/05/01 06:11:35;;;;;;;22.75;16.20;;;;;;;8.88;76.17;102368.09;7393395;19;20079;-53
2022/05/01 06:14:07;;;;;;;20.95;16.35;;;;;;;8.85;75.61;102365.53;7392457;19;20021;-55
2022/05/01 06:16:37;;;;;;;21.20;16.33;;;;;;;8.87;75.75;102364.63;7394722;19;20011;-55
2022/05/01 06:19:07;;;;;;;20.85;16.35;;;;;;;8.78;75.95;102368.22;7394706;19;20002;-55
2022/05/01 06:21:36;;;;;;;21.88;16.00;;;;;;;8.91;76.13;102373.28;7397118;19;20022;-54
2022/05/01 06:24:05;;;;;;;21.95;16.20;;;;;;;8.86;76.24;102375.13;7394639;19;20022;-56
2022/05/01 06:26:34;;;;;;;24.02;17.02;;;;;;;9.07;75.75;102373.97;7397103;19;20022;-58
2022/05/01 06:29:03;;;;;;;22.75;17.35;;;;;;;9.09;75.27;102372.22;7397188;19;20006;-60
2022/05/01 06:31:34;;;;;;;21.77;16.30;;;;;;;9.13;74.83;102376.53;7404110;19;20071;-59
2022/05/01 06:34:03;;;;;;;22.23;16.80;;;;;;;9.04;75.13;102374.88;7397498;19;20022;-58
2022/05/01 06:36:32;;;;;;;21.60;16.42;;;;;;;8.95;75.31;102367.16;7400331;19;20014;-60
2022/05/01 06:39:01;;;;;;;22.35;16.73;;;;;;;9.06;74.95;102369.63;7401244;19;20006;-57
2022/05/01 06:41:30;;;;;;;25.05;17.95;;;;;;;9.27;74.32;102376.31;7399197;19;20033;-60
2022/05/01 06:43:59;;;;;;;23.20;17.77;;;;;;;9.21;74.24;102372.03;7392042;19;20012;-59
2022/05/01 06:46:28;;;;;;;22.08;15.88;;;;;;;9.29;74.54;102383.25;7392213;19;20019;-57
2022/05/01 06:49:00;;;;;;;23.08;16.98;;;;;;;9.45;75.08;102376.06;7393835;19;20010;-59
2022/05/01 06:51:28;;;;;;;23.52;17.75;;;;;;;9.45;75.16;102380.44;7393631;19;20463;-58
2022/05/01 06:53:57;;;;;;;20.40;15.93;;;;;;;9.37;75.15;102382.28;7391166;19;20038;-59
2022/05/01 06:56:26;;;;;;;24.35;17.20;;;;;;;9.53;74.39;102368.13;7391546;19;20502;-58
2022/05/01 06:58:55;;;;;;;22.33;17.13;;;;;;;9.51;74.18;102373.38;7391273;19;20467;-59
2022/05/01 07:01:24;;;;;;;23.00;17.60;;;;;;;9.68;74.02;102375.72;7391076;19;20014;-57
2022/05/01 07:03:53;;;;;;;24.50;16.55;;;;;;;9.72;74.10;102373.91;7390328;19;20037;-59
2022/05/01 07:06:24;;;;;;;23.13;17.02;;;;;;;9.55;73.25;102376.78;7391504;19;20007;-60
2022/05/01 07:08:53;;;;;;;23.00;16.00;;;;;;;9.60;73.29;102368.88;7391617;19;20456;-57
2022/05/01 07:11:22;;;;;;;21.13;17.25;;;;;;;9.83;72.14;102374.63;7390582;19;20006;-60
2022/05/01 07:13:51;;;;;;;24.17;16.85;;;;;;;9.81;72.69;102373.75;7390157;19;20026;-60
2022/05/01 07:16:22;;;;;;;25.33;16.30;;;;;;;9.87;72.51;102372.78;7390631;19;20014;-59
2022/05/01 07:18:51;;;;;;;23.50;17.33;;;;;;;9.86;72.29;102371.09;7390720;19;20111;-58
2022/05/01 07:21:21;;;;;;;28.25;16.27;;;;;;;9.98;72.04;102381.34;7390019;19;20119;-59
2022/05/01 07:23:52;;;;;;;21.73;16.02;;;;;;;10.08;71.44;102371.59;7389677;19;20473;-59
2022/05/01 07:26:21;;;;;;;22.73;16.65;;;;;;;10.05;70.82;102371.63;7391304;19;20078;-59
2022/05/01 07:28:50;;;;;;;21.67;16.65;;;;;;;10.14;70.95;102374.09;7391599;19;20010;-60
2022/05/01 07:31:19;;;;;;;19.73;16.45;;;;;;;10.31;69.18;102375.56;7389641;19;20021;-60
2022/05/01 07:33:47;;;;;;;23.77;16.38;;;;;;;10.28;70.21;102376.47;7389331;19;20029;-61
2022/05/01 07:36:19;;;;;;;24.20;16.02;;;;;;;10.30;70.30;102382.56;7390027;19;20014;-61
2022/05/01 07:38:48;;;;;;;22.58;16.63;;;;;;;10.40;69.39;102378.03;7390624;19;20022;-60
2022/05/01 07:41:20;;;;;;;23.85;16.95;;;;;;;10.38;68.99;102378.06;7390589;19;20022;-61
2022/05/01 07:43:49;;;;;;;21.80;15.98;;;;;;;10.36;69.06;102385.09;7389364;19;20077;-61
2022/05/01 07:46:18;;;;;;;20.73;15.05;;;;;;;10.52;68.57;102383.06;7390157;19;20007;-62
2022/05/01 07:48:47;;;;;;;22.63;15.57;;;;;;;10.54;67.35;102373.41;7389846;19;20010;-61
2022/05/01 07:51:17;;;;;;;25.98;15.73;;;;;;;10.65;67.03;102378.44;7389021;19;20038;-62
2022/05/01 07:53:46;;;;;;;21.13;15.75;;;;;;;10.67;67.79;102378.41;7389569;19;20025;-61
2022/05/01 07:56:15;;;;;;;22.75;15.48;;;;;;;10.47;67.90;102373.56;7389372;19;20014;-62
2022/05/01 07:58:47;;;;;;;19.17;14.73;;;;;;;10.58;67.39;102375.97;7389635;19;20014;-61
2022/05/01 08:01:15;;;;;;;21.80;15.93;;;;;;;10.77;66.98;102368.59;7389879;19;20536;-60
2022/05/01 08:06:26;;;;;;;18.95;14.90;;;;;;;10.66;67.35;102367.06;7389957;19;20086;-61
2022/05/01 08:08:55;;;;;;;20.65;14.90;;;;;;;10.76;67.47;102369.50;7389491;19;20015;-62
2022/05/01 08:11:24;;;;;;;20.40;15.30;;;;;;;10.80;67.27;102368.53;7389039;19;20056;-61
2022/05/01 08:13:56;;;;;;;21.25;15.90;;;;;;;10.79;66.80;102369.44;7388277;19;20363;-59
2022/05/01 08:16:25;;;;;;;22.52;15.07;;;;;;;10.58;67.25;102370.75;7387979;19;20018;-61
2022/05/01 08:21:37;;;;;;;23.58;15.35;;;;;;;10.98;66.01;102368.16;7387395;19;20026;-61
2022/05/01 08:24:07;;;;;;;17.48;14.02;;;;;;;11.06;65.31;102368.88;7388283;19;20022;-59
2022/05/01 08:26:36;;;;;;;19.65;14.93;;;;;;;11.28;64.61;102375.41;7389758;19;20022;-62
2022/05/01 08:29:07;;;;;;;20.73;15.13;;;;;;;11.20;64.62;102373.84;7388279;19;20019;-62
2022/05/01 08:31:36;;;;;;;20.52;15.00;;;;;;;11.11;64.88;102370.53;7387724;19;20014;-61
2022/05/01 08:34:05;;;;;;;30.83;19.55;;;;;;;11.18;63.44;102380.84;7387619;19;20404;-61
2022/05/01 08:36:34;;;;;;;19.65;14.48;;;;;;;11.41;63.03;102369.00;7387147;19;20082;-61
2022/05/01 08:39:03;;;;;;;18.90;13.82;;;;;;;11.50;63.39;102370.53;7388549;19;20033;-62
2022/05/01 08:41:34;;;;;;;18.88;14.18;;;;;;;11.54;63.04;102372.19;7388313;19;20115;-62
2022/05/01 08:44:05;;;;;;;18.05;14.13;;;;;;;11.63;63.37;102368.50;7387744;19;20225;-62
2022/05/01 08:47:04;;;;;;;20.67;15.25;;;;;;;11.64;63.30;102368.44;7388902;19;20156;-62
2022/05/01 08:49:35;;;;;;;20.35;14.48;;;;;;;11.57;62.94;102365.09;7386519;19;20472;-61
2022/05/01 08:52:08;;;;;;;21.20;14.63;;;;;;;11.72;63.25;102358.63;7387969;19;20049;-61
2022/05/01 08:54:37;;;;;;;;;;;;;;;11.74;61.61;102361.22;7387368;19;20086;-61
2022/05/01 08:57:07;;;;;;;18.25;13.30;;;;;;;11.62;61.17;102367.63;7394153;19;19918;-61
2022/05/01 08:59:37;;;;;;;19.45;12.82;;;;;;;11.82;60.46;102359.28;7392923;19;20445;-60
2022/05/01 09:02:13;;;;;;;16.50;12.15;;;;;;;11.84;59.85;102357.47;7396074;19;20110;-60
2022/05/01 09:04:43;;;;;;;14.52;11.48;;;;;;;11.68;59.63;102369.25;7396617;19;20024;-61
2022/05/01 09:07:12;;;;;;;16.58;12.07;;;;;;;11.38;59.45;102353.31;7399766;19;20023;-61
2022/05/01 09:09:41;;;;;;;18.33;12.40;;;;;;;11.54;59.43;102357.28;7400596;19;20851;-60
2022/05/01 09:14:54;;;;;;;19.40;12.77;;;;;;;11.36;59.39;102355.09;7402407;19;20026;-59
2022/05/01 09:17:26;;;;;;;15.77;12.77;;;;;;;11.48;59.64;102353.97;7399284;19;20325;-62
2022/05/01 09:19:56;;;;;;;18.15;13.50;;;;;;;11.43;59.64;102348.81;7397535;19;20475;-62
2022/05/01 09:22:25;;;;;;;17.65;12.82;;;;;;;11.48;59.92;102349.56;7397098;19;20484;-61
2022/05/01 09:24:57;;;;;;;17.45;12.93;;;;;;;11.68;59.71;102354.34;7394228;19;20022;-62
2022/05/01 09:27:29;;;;;;;19.27;13.85;;;;;;;11.64;58.89;102357.09;7395937;19;20083;-61
2022/05/01 09:30:12;;;;;;;17.23;13.63;;;;;;;11.60;59.67;102353.66;7394975;19;20025;-61
2022/05/01 09:32:44;;;;;;;;;;;;;;;11.57;59.44;102359.00;7395861;19;20018;-61
2022/05/01 09:35:18;;;;;;;19.35;14.40;;;;;;;11.51;60.48;102360.00;7391843;19;19929;-61
2022/05/01 09:37:48;;;;;;;21.45;14.95;;;;;;;11.67;60.71;102357.88;7395104;19;20488;-61
2022/05/01 09:40:31;;;;;;;20.60;15.00;;;;;;;11.43;62.36;102359.31;7394495;19;20025;-59
2022/05/01 09:43:00;;;;;;;18.58;14.93;;;;;;;11.58;62.10;102345.81;7394443;19;20090;-61
2022/05/01 09:45:33;;;;;;;18.13;14.38;;;;;;;11.46;61.31;102350.50;7392805;19;20018;-61
2022/05/01 09:48:20;;;;;;;23.45;15.40;;;;;;;11.74;61.14;102353.34;7394073;19;20014;-60
2022/05/01 09:50:49;;;;;;;19.85;14.85;;;;;;;11.77;60.59;102351.47;7393185;19;20018;-60
2022/05/01 09:53:18;;;;;;;31.95;15.65;;;;;;;11.66;60.19;102355.28;7393369;19;20360;-60
2022/05/01 09:56:02;;;;;;;16.65;13.45;;;;;;;11.61;58.97;102358.03;7391578;19;20022;-58
2022/05/01 09:58:33;;;;;;;18.52;13.30;;;;;;;11.56;57.02;102352.88;7394913;19;20025;-60
2022/05/01 10:01:10;;;;;;;17.83;13.30;;;;;;;11.73;58.43;102349.84;7394655;19;20074;-62
2022/05/01 10:03:42;;;;;;;17.13;13.00;;;;;;;11.90;57.66;102353.81;7391281;19;20021;-57
2022/05/01 10:06:13;;;;;;;17.15;12.73;;;;;;;11.97;57.54;102352.78;7391621;19;20359;-61
2022/05/01 10:08:43;;;;;;;20.83;13.20;;;;;;;12.10;56.67;102348.94;7392722;19;20022;-60
2022/05/01 10:11:14;;;;;;;18.50;13.52;;;;;;;12.24;56.91;102337.22;7392283;19;20502;-59
2022/05/01 10:13:44;;;;;;;114.47;17.83;;;;;;;12.29;56.39;102337.94;7391530;19;20679;-61
2022/05/01 10:16:15;;;;;;;16.17;12.43;;;;;;;12.14;55.90;102352.34;7391520;19;20019;-61
2022/05/01 10:18:48;;;;;;;16.77;12.95;;;;;;;12.22;55.91;102342.50;7392099;19;20015;-61
2022/05/01 10:21:17;;;;;;;13.55;11.63;;;;;;;12.14;56.09;102341.00;7391225;19;20022;-60
2022/05/01 10:23:48;;;;;;;15.00;12.05;;;;;;;12.22;56.18;102337.25;7390871;19;20018;-60
2022/05/01 10:26:21;;;;;;;16.58;12.07;;;;;;;12.16;54.97;102350.53;7390651;19;20072;-59
2022/05/01 10:29:20;;;;;;;14.80;11.73;;;;;;;12.08;54.52;102348.13;7391514;19;20484;-61
2022/05/01 10:32:27;;;;;;;14.77;10.38;;;;;;;12.35;51.65;102342.16;7391140;19;20476;-58
2022/05/01 10:35:23;;;;;;;15.73;10.70;;;;;;;12.23;53.32;102336.34;7389247;19;20021;-59
2022/05/01 10:38:09;;;;;;;13.70;10.45;;;;;;;11.98;52.30;102343.13;7391741;19;20019;-60
2022/05/01 10:40:43;;;;;;;14.23;10.73;;;;;;;12.10;51.62;102330.53;7389536;19;20026;-61
2022/05/01 10:43:30;;;;;;;12.48;10.15;;;;;;;12.31;51.64;102333.50;7390545;19;20023;-61
2022/05/01 10:46:01;;;;;;;12.45;9.10;;;;;;;12.40;49.97;102335.03;7389411;19;20045;-60
2022/05/01 10:48:38;;;;;;;12.20;7.93;;;;;;;12.12;48.32;102335.75;7390900;19;20018;-60
2022/05/01 10:51:37;;;;;;;11.90;8.00;;;;;;;12.20;47.62;102325.91;7389350;19;20017;-60
2022/05/01 10:54:37;;;;;;;9.85;7.68;;;;;;;11.92;45.58;102336.25;7389677;19;20133;-58
2022/05/01 10:57:15;;;;;;;12.70;7.88;;;;;;;12.00;46.80;102331.69;7389409;19;20125;-60
2022/05/01 11:00:04;;;;;;;13.43;8.30;;;;;;;12.22;47.97;102315.34;7389016;19;20015;-60
2022/05/01 11:02:45;;;;;;;14.15;9.95;;;;;;;12.33;51.88;102310.66;7391013;19;20017;-60
2022/05/01 11:05:42;;;;;;;12.52;9.82;;;;;;;12.51;53.34;102305.78;7389293;19;20015;-61
2022/05/01 11:08:16;;;;;;;10.40;9.05;;;;;;;12.53;54.09;102309.25;7390493;19;20014;-59
2022/05/01 11:10:50;;;;;;;12.77;9.23;;;;;;;12.73;49.64;102306.91;7389400;19;20025;-61
2022/05/01 11:13:20;;;;;;;12.25;8.80;;;;;;;12.71;46.49;102311.34;7393904;19;20130;-61
2022/05/01 11:15:51;;;;;;;12.95;8.93;;;;;;;12.57;47.59;102303.84;7389923;19;20400;-60
2022/05/01 11:18:29;;;;;;;11.23;8.68;;;;;;;12.53;47.78;102301.38;7388901;19;20007;-62
2022/05/01 11:21:37;;;;;;;10.80;8.20;;;;;;;12.61;45.77;102302.88;7389214;19;20016;-61
2022/05/01 11:24:08;;;;;;;11.10;8.32;;;;;;;12.70;46.39;102309.63;7389292;19;20374;-60
2022/05/01 11:26:39;;;;;;;17.30;10.07;;;;;;;12.60;48.69;102303.75;7389054;19;20015;-63
2022/05/01 11:29:13;;;;;;;13.40;10.18;;;;;;;12.77;48.91;102299.78;7388178;19;20007;-59
2022/05/01 11:31:51;;;;;;;14.27;10.10;;;;;;;12.58;48.47;102299.44;7390430;19;20018;-61
2022/05/01 11:34:52;;;;;;;13.88;10.07;;;;;;;12.52;48.56;102295.25;7389085;19;20049;-60
2022/05/01 11:37:22;;;;;;;11.93;10.05;;;;;;;12.84;48.51;102292.56;7389206;19;20125;-60
2022/05/01 11:40:23;;;;;;;10.63;9.07;;;;;;;12.89;48.78;102286.25;7387143;19;20010;-60
2022/05/01 11:42:55;;;;;;;13.30;9.70;;;;;;;13.12;48.71;102293.47;7387605;19;20035;-61
2022/05/01 11:45:33;;;;;;;13.27;9.40;;;;;;;13.09;48.31;102283.00;7388849;19;20011;-61
2022/05/01 11:48:02;;;;;;;13.00;10.07;;;;;;;13.26;47.19;102285.09;7390047;19;20014;-60
2022/05/01 11:50:32;;;;;;;14.60;10.50;;;;;;;13.04;47.83;102278.78;7388793;19;20419;-60
2022/05/01 11:53:02;;;;;;;17.25;10.93;;;;;;;13.03;47.33;102275.31;7387309;19;20014;-60
2022/05/01 12:03:39;;;;;;;14.55;9.93;;;;;;;12.96;49.09;102264.09;7388529;19;20025;-60
2022/05/01 12:06:07;;;;;;;15.50;9.82;;;;;;;13.19;48.11;102262.53;7388748;19;20022;-60
2022/05/01 12:08:49;;;;;;;20.52;10.15;;;;;;;13.32;47.90;102260.34;7388987;19;20018;-59
2022/05/01 12:11:32;;;;;;;13.00;10.15;;;;;;;13.33;47.90;102252.41;7388792;19;20026;-60